sensor_id;sensor_type;location;lat;lon;timestamp;pressure;altitude;pressure_sealevel;temperature;humidity
20145;BME280;10233;50.814;6.590;2023-05-09T00:00:42;100435.25;;;17.24;100.00
20145;BME280;10233;50.814;6.590;2023-05-09T00:01:42;100434.34;;;17.19;100.00
20145;BME280;10233;50.814;6.590;2023-05-09T00:02:45;100438.09;;;17.18;100.00
20145;BME280;10233;50.814;6.590;2023-05-09T00:03:45;100440.53;;;17.19;100.00
20145;BME280;10233;50.814;6.590;2023-05-09T00:04:46;100435.41;;;17.18;100.00
20145;BME280;10233;50.814;6.590;2023-05-09T00:05:47;100439.47;;;17.20;100.00
20145;BME280;10233;50.814;6.590;2023-05-09T00:06:48;100438.91;;;17.18;100.00
20145;BME280;10233;50.814;6.590;2023-05-09T00:07:48;100439.72;;;17.19;100.00
20145;BME280;10233;50.814;6.590;2023-05-09T00:08:49;100447.22;;;17.17;100.00
20145;BME280;10233;50.814;6.590;2023-05-09T00:09:49;100435.81;;;17.10;100.00
20145;BME280;10233;50.814;6.590;2023-05-09T00:10:50;100441.41;;;17.08;100.00
20145;BME280;10233;50.814;6.590;2023-05-09T00:11:51;100444.09;;;17.08;100.00
20145;BME280;10233;50.814;6.590;2023-05-09T00:12:52;100439.88;;;17.12;100.00
20145;BME280;10233;50.814;6.590;2023-05-09T00:13:52;100441.41;;;17.08;100.00
20145;BME280;10233;50.814;6.590;2023-05-09T00:14:53;100430.66;;;17.08;100.00
20145;BME280;10233;50.814;6.590;2023-05-09T00:15:56;100432.38;;;17.14;100.00
20145;BME280;10233;50.814;6.590;2023-05-09T00:16:56;100435.19;;;17.08;100.00
20145;BME280;10233;50.814;6.590;2023-05-09T00:17:58;100434.50;;;17.12;100.00
20145;BME280;10233;50.814;6.590;2023-05-09T00:18:59;100430.75;;;17.13;100.00
20145;BME280;10233;50.814;6.590;2023-05-09T00:19:59;100431.22;;;17.10;100.00
20145;BME280;10233;50.814;6.590;2023-05-09T00:21:01;100430.75;;;17.13;100.00
20145;BME280;10233;50.814;6.590;2023-05-09T00:22:03;100425.72;;;17.17;100.00
20145;BME280;10233;50.814;6.590;2023-05-09T00:23:04;100429.88;;;17.24;100.00
20145;BME280;10233;50.814;6.590;2023-05-09T00:24:04;100430.34;;;17.21;100.00
20145;BME280;10233;50.814;6.590;2023-05-09T00:25:09;100427.09;;;17.19;100.00
20145;BME280;10233;50.814;6.590;2023-05-09T00:26:10;100435.16;;;17.19;100.00
20145;BME280;10233;50.814;6.590;2023-05-09T00:27:13;100427.00;;;17.14;100.00
20145;BME280;10233;50.814;6.590;2023-05-09T00:28:14;100430.84;;;17.18;100.00
20145;BME280;10233;50.814;6.590;2023-05-09T00:29:15;100430.25;;;17.16;100.00
20145;BME280;10233;50.814;6.590;2023-05-09T00:30:16;100431.31;;;17.15;100.00
20145;BME280;10233;50.814;6.590;2023-05-09T00:31:16;100427.34;;;17.18;100.00
20145;BME280;10233;50.814;6.590;2023-05-09T00:32:17;100427.09;;;17.19;100.00
20145;BME280;10233;50.814;6.590;2023-05-09T00:33:19;100421.72;;;17.19;100.00
20145;BME280;10233;50.814;6.590;2023-05-09T00:34:19;100425.56;;;17.23;100.00
20145;BME280;10233;50.814;6.590;2023-05-09T00:35:20;100422.56;;;17.20;100.00
20145;BME280;10233;50.814;6.590;2023-05-09T00:36:21;100412.28;;;17.17;100.00
20145;BME280;10233;50.814;6.590;2023-05-09T00:37:22;100414.63;;;17.13;100.00
20145;BME280;10233;50.814;6.590;2023-05-09T00:38:23;100419.69;;;17.10;100.00
20145;BME280;10233;50.814;6.590;2023-05-09T00:39:23;100417.78;;;17.10;100.00
20145;BME280;10233;50.814;6.590;2023-05-09T00:40:24;100414.31;;;17.10;100.00
20145;BME280;10233;50.814;6.590;2023-05-09T00:41:25;100413.00;;;17.12;100.00
20145;BME280;10233;50.814;6.590;2023-05-09T00:42:25;100417.22;;;17.08;100.00
20145;BME280;10233;50.814;6.590;2023-05-09T00:43:26;100404.25;;;17.05;100.00
20145;BME280;10233;50.814;6.590;2023-05-09T00:44:27;100410.31;;;17.12;100.00
20145;BME280;10233;50.814;6.590;2023-05-09T00:45:27;100406.94;;;17.05;100.00
20145;BME280;10233;50.814;6.590;2023-05-09T00:46:28;100402.25;;;17.12;100.00
20145;BME280;10233;50.814;6.590;2023-05-09T00:47:29;100408.25;;;17.03;100.00
20145;BME280;10233;50.814;6.590;2023-05-09T00:48:29;100407.78;;;17.06;100.00
20145;BME280;10233;50.814;6.590;2023-05-09T00:49:30;100401.34;;;17.07;100.00
20145;BME280;10233;50.814;6.590;2023-05-09T00:50:31;100408.94;;;17.10;100.00
20145;BME280;10233;50.814;6.590;2023-05-09T00:51:32;100404.59;;;17.09;100.00
20145;BME280;10233;50.814;6.590;2023-05-09T00:52:36;100404.75;;;17.02;100.00
20145;BME280;10233;50.814;6.590;2023-05-09T00:53:37;100404.75;;;17.02;100.00
20145;BME280;10233;50.814;6.590;2023-05-09T00:54:37;100402.06;;;17.02;100.00
20145;BME280;10233;50.814;6.590;2023-05-09T00:55:38;100405.78;;;17.01;100.00
20145;BME280;10233;50.814;6.590;2023-05-09T00:56:39;100401.00;;;17.03;100.00
20145;BME280;10233;50.814;6.590;2023-05-09T00:57:40;100401.22;;;17.02;100.00
20145;BME280;10233;50.814;6.590;2023-05-09T00:58:41;100397.50;;;17.03;100.00
20145;BME280;10233;50.814;6.590;2023-05-09T00:59:41;100393.91;;;16.97;100.00
20145;BME280;10233;50.814;6.590;2023-05-09T01:00:42;100391.09;;;16.92;100.00
20145;BME280;10233;50.814;6.590;2023-05-09T01:01:43;100394.03;;;16.91;100.00
20145;BME280;10233;50.814;6.590;2023-05-09T01:02:53;100390.53;;;16.90;100.00
20145;BME280;10233;50.814;6.590;2023-05-09T01:03:54;100394.75;;;16.86;100.00
20145;BME280;10233;50.814;6.590;2023-05-09T01:04:55;100398.59;;;16.90;100.00
20145;BME280;10233;50.814;6.590;2023-05-09T01:07:40;100396.72;;;16.91;100.00
20145;BME280;10233;50.814;6.590;2023-05-09T01:08:57;100390.75;;;16.89;100.00
20145;BME280;10233;50.814;6.590;2023-05-09T01:10:22;100387.00;;;16.90;100.00
20145;BME280;10233;50.814;6.590;2023-05-09T01:11:35;100381.31;;;16.86;100.00
20145;BME280;10233;50.814;6.590;2023-05-09T01:16:36;100381.31;;;16.86;100.00
20145;BME280;10233;50.814;6.590;2023-05-09T01:17:47;100385.88;;;16.86;100.00
20145;BME280;10233;50.814;6.590;2023-05-09T01:18:57;100377.78;;;16.97;100.00
20145;BME280;10233;50.814;6.590;2023-05-09T01:20:17;100373.44;;;16.96;100.00
20145;BME280;10233;50.814;6.590;2023-05-09T01:21:21;100371.44;;;17.03;100.00
20145;BME280;10233;50.814;6.590;2023-05-09T01:22:33;100382.19;;;17.03;100.00
20145;BME280;10233;50.814;6.590;2023-05-09T01:24:03;100375.44;;;17.01;100.00
20145;BME280;10233;50.814;6.590;2023-05-09T01:30:14;100367.19;;;16.91;100.00
20145;BME280;10233;50.814;6.590;2023-05-09T01:31:16;100372.56;;;16.91;100.00
20145;BME280;10233;50.814;6.590;2023-05-09T01:32:20;100373.34;;;16.91;100.00
20145;BME280;10233;50.814;6.590;2023-05-09T01:33:23;100367.75;;;16.93;100.00
20145;BME280;10233;50.814;6.590;2023-05-09T01:34:27;100372.50;;;17.02;100.00
20145;BME280;10233;50.814;6.590;2023-05-09T01:35:29;100364.91;;;16.99;100.00
20145;BME280;10233;50.814;6.590;2023-05-09T01:36:35;100374.75;;;16.94;100.00
20145;BME280;10233;50.814;6.590;2023-05-09T01:37:39;100367.50;;;16.94;100.00
20145;BME280;10233;50.814;6.590;2023-05-09T01:38:43;100369.72;;;16.97;100.00
20145;BME280;10233;50.814;6.590;2023-05-09T01:39:46;100364.78;;;17.06;100.00
20145;BME280;10233;50.814;6.590;2023-05-09T01:40:52;100371.78;;;17.07;100.00
20145;BME280;10233;50.814;6.590;2023-05-09T01:41:55;100372.00;;;17.05;100.00
20145;BME280;10233;50.814;6.590;2023-05-09T01:43:01;100356.06;;;17.15;100.00
20145;BME280;10233;50.814;6.590;2023-05-09T01:44:05;100353.88;;;17.12;100.00
20145;BME280;10233;50.814;6.590;2023-05-09T01:45:08;100354.44;;;17.14;100.00
20145;BME280;10233;50.814;6.590;2023-05-09T01:46:11;100347.03;;;17.21;100.00
20145;BME280;10233;50.814;6.590;2023-05-09T01:47:12;100348.50;;;17.12;100.00
20145;BME280;10233;50.814;6.590;2023-05-09T01:48:16;100343.47;;;17.16;100.00
20145;BME280;10233;50.814;6.590;2023-05-09T01:49:18;100344.59;;;17.20;100.00
20145;BME280;10233;50.814;6.590;2023-05-09T01:50:20;100345.97;;;17.06;100.00
20145;BME280;10233;50.814;6.590;2023-05-09T01:51:23;100349.44;;;17.06;100.00
20145;BME280;10233;50.814;6.590;2023-05-09T01:52:25;100346.63;;;17.13;100.00
20145;BME280;10233;50.814;6.590;2023-05-09T01:53:27;100348.97;;;17.09;100.00
20145;BME280;10233;50.814;6.590;2023-05-09T01:54:29;100350.94;;;17.14;100.00
20145;BME280;10233;50.814;6.590;2023-05-09T01:55:32;100346.63;;;17.13;100.00
20145;BME280;10233;50.814;6.590;2023-05-09T01:56:34;100352.31;;;17.16;100.00
20145;BME280;10233;50.814;6.590;2023-05-09T01:57:37;100349.72;;;17.21;100.00
20145;BME280;10233;50.814;6.590;2023-05-09T01:58:38;100345.41;;;17.20;100.00
20145;BME280;10233;50.814;6.590;2023-05-09T01:59:42;100343.31;;;17.22;100.00
20145;BME280;10233;50.814;6.590;2023-05-09T02:00:44;100343.53;;;17.21;100.00
20145;BME280;10233;50.814;6.590;2023-05-09T02:01:46;100338.97;;;17.21;100.00
20145;BME280;10233;50.814;6.590;2023-05-09T02:02:48;100336.03;;;17.23;100.00
20145;BME280;10233;50.814;6.590;2023-05-09T02:03:50;100345.09;;;17.17;100.00
20145;BME280;10233;50.814;6.590;2023-05-09T02:04:55;100343.13;;;17.12;100.00
20145;BME280;10233;50.814;6.590;2023-05-09T02:05:57;100346.84;;;17.11;100.00
20145;BME280;10233;50.814;6.590;2023-05-09T02:06:59;100348.69;;;17.22;100.00
20145;BME280;10233;50.814;6.590;2023-05-09T02:08:01;100347.63;;;17.23;100.00
20145;BME280;10233;50.814;6.590;2023-05-09T02:09:01;100348.41;;;17.24;100.00
20145;BME280;10233;50.814;6.590;2023-05-09T02:10:06;100340.78;;;17.16;100.00
20145;BME280;10233;50.814;6.590;2023-05-09T02:11:10;100338.66;;;17.18;100.00
20145;BME280;10233;50.814;6.590;2023-05-09T02:12:12;100347.63;;;17.23;100.00
20145;BME280;10233;50.814;6.590;2023-05-09T02:13:13;100341.19;;;17.24;100.00
20145;BME280;10233;50.814;6.590;2023-05-09T02:14:14;100341.75;;;17.26;100.00
20145;BME280;10233;50.814;6.590;2023-05-09T02:15:15;100334.66;;;17.20;100.00
20145;BME280;10233;50.814;6.590;2023-05-09T02:16:16;100336.88;;;17.23;100.00
20145;BME280;10233;50.814;6.590;2023-05-09T02:17:17;100334.81;;;17.14;100.00
20145;BME280;10233;50.814;6.590;2023-05-09T02:18:18;100335.47;;;17.21;100.00
20145;BME280;10233;50.814;6.590;2023-05-09T02:19:19;100338.16;;;17.21;100.00
20145;BME280;10233;50.814;6.590;2023-05-09T02:20:19;100334.25;;;17.12;100.00
20145;BME280;10233;50.814;6.590;2023-05-09T02:21:20;100337.56;;;17.02;100.00
20145;BME280;10233;50.814;6.590;2023-05-09T02:22:21;100341.97;;;17.08;100.00
20145;BME280;10233;50.814;6.590;2023-05-09T02:23:21;100339.38;;;17.13;100.00
20145;BME280;10233;50.814;6.590;2023-05-09T02:24:22;100335.63;;;17.14;100.00
20145;BME280;10233;50.814;6.590;2023-05-09T02:25:23;100341.66;;;17.21;100.00
20145;BME280;10233;50.814;6.590;2023-05-09T02:26:24;100337.25;;;17.15;100.00
20145;BME280;10233;50.814;6.590;2023-05-09T02:27:26;100337.41;;;17.09;100.00
20145;BME280;10233;50.814;6.590;2023-05-09T02:28:27;100335.22;;;17.06;100.00
20145;BME280;10233;50.814;6.590;2023-05-09T02:29:37;100332.28;;;17.07;100.00
20145;BME280;10233;50.814;6.590;2023-05-09T02:30:42;100334.97;;;17.07;100.00
20145;BME280;10233;50.814;6.590;2023-05-09T02:31:46;100338.59;;;17.01;100.00
20145;BME280;10233;50.814;6.590;2023-05-09T02:32:50;100333.81;;;17.03;100.00
20145;BME280;10233;50.814;6.590;2023-05-09T02:33:53;100329.16;;;16.99;100.00
20145;BME280;10233;50.814;6.590;2023-05-09T02:34:54;100329.91;;;16.94;100.00
20145;BME280;10233;50.814;6.590;2023-05-09T02:35:57;100324.66;;;16.88;100.00
20145;BME280;10233;50.814;6.590;2023-05-09T02:36:58;100331.56;;;16.84;100.00
20145;BME280;10233;50.814;6.590;2023-05-09T02:37:59;100318.03;;;16.79;100.00
20145;BME280;10233;50.814;6.590;2023-05-09T02:39:02;100319.97;;;16.67;100.00
20145;BME280;10233;50.814;6.590;2023-05-09T02:40:06;100327.81;;;16.68;100.00
20145;BME280;10233;50.814;6.590;2023-05-09T02:41:13;100329.41;;;16.69;100.00
20145;BME280;10233;50.814;6.590;2023-05-09T02:42:20;100319.84;;;16.73;100.00
20145;BME280;10233;50.814;6.590;2023-05-09T02:43:21;100316.50;;;16.83;100.00
20145;BME280;10233;50.814;6.590;2023-05-09T02:44:22;100316.19;;;16.79;100.00
20145;BME280;10233;50.814;6.590;2023-05-09T02:45:23;100309.75;;;16.80;100.00
20145;BME280;10233;50.814;6.590;2023-05-09T02:46:24;100321.78;;;16.78;100.00
20145;BME280;10233;50.814;6.590;2023-05-09T02:47:24;100319.09;;;16.78;100.00
20145;BME280;10233;50.814;6.590;2023-05-09T02:48:25;100318.38;;;16.82;100.00
20145;BME280;10233;50.814;6.590;2023-05-09T02:49:26;100316.19;;;16.79;100.00
20145;BME280;10233;50.814;6.590;2023-05-09T02:50:26;100314.88;;;16.82;100.00
20145;BME280;10233;50.814;6.590;2023-05-09T02:51:27;100316.03;;;16.86;100.00
20145;BME280;10233;50.814;6.590;2023-05-09T02:52:27;100313.28;;;16.81;100.00
20145;BME280;10233;50.814;6.590;2023-05-09T02:53:28;100321.06;;;16.82;100.00
20145;BME280;10233;50.814;6.590;2023-05-09T02:54:29;100317.91;;;16.85;100.00
20145;BME280;10233;50.814;6.590;2023-05-09T02:55:29;100315.31;;;16.90;100.00
20145;BME280;10233;50.814;6.590;2023-05-09T02:56:34;100313.69;;;16.89;100.00
20145;BME280;10233;50.814;6.590;2023-05-09T02:57:34;100317.03;;;16.96;100.00
20145;BME280;10233;50.814;6.590;2023-05-09T02:58:35;100309.94;;;16.90;100.00
20145;BME280;10233;50.814;6.590;2023-05-09T02:59:36;100317.16;;;16.90;100.00
20145;BME280;10233;50.814;6.590;2023-05-09T03:00:36;100314.00;;;16.93;100.00
20145;BME280;10233;50.814;6.590;2023-05-09T03:01:38;100311.25;;;16.88;100.00
20145;BME280;10233;50.814;6.590;2023-05-09T03:02:39;100307.53;;;16.77;100.00
20145;BME280;10233;50.814;6.590;2023-05-09T03:03:45;100306.50;;;16.78;100.00
20145;BME280;10233;50.814;6.590;2023-05-09T03:04:46;100309.34;;;16.72;100.00
20145;BME280;10233;50.814;6.590;2023-05-09T03:05:47;100298.97;;;16.64;100.00
20145;BME280;10233;50.814;6.590;2023-05-09T03:06:47;100301.50;;;16.70;100.00
20145;BME280;10233;50.814;6.590;2023-05-09T03:07:48;100302.81;;;16.68;100.00
20145;BME280;10233;50.814;6.590;2023-05-09T03:08:51;100310.63;;;16.69;100.00
20145;BME280;10233;50.814;6.590;2023-05-09T03:09:51;100305.34;;;16.74;100.00
20145;BME280;10233;50.814;6.590;2023-05-09T03:10:52;100306.06;;;16.70;100.00
20145;BME280;10233;50.814;6.590;2023-05-09T03:11:54;100311.28;;;16.76;100.00
20145;BME280;10233;50.814;6.590;2023-05-09T03:12:56;100309.47;;;16.65;100.00
20145;BME280;10233;50.814;6.590;2023-05-09T03:13:56;100313.06;;;16.71;100.00
20145;BME280;10233;50.814;6.590;2023-05-09T03:14:57;100315.75;;;16.71;100.00
20145;BME280;10233;50.814;6.590;2023-05-09T03:15:58;100312.72;;;16.67;100.00
20145;BME280;10233;50.814;6.590;2023-05-09T03:16:59;100317.06;;;16.68;100.00
20145;BME280;10233;50.814;6.590;2023-05-09T03:18:05;100308.69;;;16.81;100.00
20145;BME280;10233;50.814;6.590;2023-05-09T03:19:05;100306.50;;;16.78;100.00
20145;BME280;10233;50.814;6.590;2023-05-09T03:20:09;100311.50;;;16.58;100.00
20145;BME280;10233;50.814;6.590;2023-05-09T03:21:10;100313.50;;;16.51;100.00
20145;BME280;10233;50.814;6.590;2023-05-09T03:22:12;100308.25;;;16.45;100.00
20145;BME280;10233;50.814;6.590;2023-05-09T03:23:19;100308.13;;;16.51;100.00
20145;BME280;10233;50.814;6.590;2023-05-09T03:24:20;100311.13;;;16.55;100.00
20145;BME280;10233;50.814;6.590;2023-05-09T03:25:21;100313.69;;;16.61;100.00
20145;BME280;10233;50.814;6.590;2023-05-09T03:26:22;100310.44;;;16.59;100.00
20145;BME280;10233;50.814;6.590;2023-05-09T03:27:23;100313.72;;;16.50;100.00
20145;BME280;10233;50.814;6.590;2023-05-09T03:28:26;100312.53;;;16.57;100.00
20145;BME280;10233;50.814;6.590;2023-05-09T03:29:27;100306.47;;;16.62;100.00
20145;BME280;10233;50.814;6.590;2023-05-09T03:30:28;100303.88;;;16.67;100.00
20145;BME280;10233;50.814;6.590;2023-05-09T03:31:30;100305.84;;;16.60;100.00
20145;BME280;10233;50.814;6.590;2023-05-09T03:32:34;100309.13;;;16.62;100.00
20145;BME280;10233;50.814;6.590;2023-05-09T03:33:35;100294.88;;;16.61;100.00
20145;BME280;10233;50.814;6.590;2023-05-09T03:34:35;100299.28;;;16.67;100.00
20145;BME280;10233;50.814;6.590;2023-05-09T03:35:36;100297.19;;;16.69;100.00
20145;BME280;10233;50.814;6.590;2023-05-09T03:36:37;100292.28;;;16.66;100.00
20145;BME280;10233;50.814;6.590;2023-05-09T03:37:38;100292.28;;;16.66;100.00
20145;BME280;10233;50.814;6.590;2023-05-09T03:38:41;100296.50;;;16.62;100.00
20145;BME280;10233;50.814;6.590;2023-05-09T03:39:43;100288.00;;;16.65;100.00
20145;BME280;10233;50.814;6.590;2023-05-09T03:40:43;100292.97;;;16.73;100.00
20145;BME280;10233;50.814;6.590;2023-05-09T03:41:45;100290.22;;;16.68;100.00
20145;BME280;10233;50.814;6.590;2023-05-09T03:42:46;100289.25;;;16.74;100.00
20145;BME280;10233;50.814;6.590;2023-05-09T03:43:47;100288.00;;;16.65;100.00
20145;BME280;10233;50.814;6.590;2023-05-09T03:44:48;100288.47;;;16.62;100.00
20145;BME280;10233;50.814;6.590;2023-05-09T03:45:50;100287.66;;;16.62;100.00
20145;BME280;10233;50.814;6.590;2023-05-09T03:46:50;100284.88;;;16.57;100.00
20145;BME280;10233;50.814;6.590;2023-05-09T03:47:51;100285.53;;;16.64;100.00
20145;BME280;10233;50.814;6.590;2023-05-09T03:48:52;100283.72;;;16.53;100.00
20145;BME280;10233;50.814;6.590;2023-05-09T03:49:53;100285.81;;;16.51;100.00
20145;BME280;10233;50.814;6.590;2023-05-09T03:50:56;100288.41;;;16.46;100.00
20145;BME280;10233;50.814;6.590;2023-05-09T03:51:59;100283.28;;;16.44;100.00
20145;BME280;10233;50.814;6.590;2023-05-09T03:53:00;100283.03;;;16.46;100.00
20145;BME280;10233;50.814;6.590;2023-05-09T03:54:01;100284.81;;;16.40;100.00
20145;BME280;10233;50.814;6.590;2023-05-09T03:55:03;100281.50;;;16.38;100.00
20145;BME280;10233;50.814;6.590;2023-05-09T03:56:07;100282.13;;;16.40;100.00
20145;BME280;10233;50.814;6.590;2023-05-09T03:57:13;100287.72;;;16.27;100.00
20145;BME280;10233;50.814;6.590;2023-05-09T03:58:14;100281.94;;;16.19;100.00
20145;BME280;10233;50.814;6.590;2023-05-09T03:59:16;100283.22;;;16.16;100.00
20145;BME280;10233;50.814;6.590;2023-05-09T04:00:17;100283.00;;;16.18;100.00
20145;BME280;10233;50.814;6.590;2023-05-09T04:01:31;100281.19;;;16.23;100.00
20145;BME280;10233;50.814;6.590;2023-05-09T04:02:33;100278.69;;;16.17;100.00
20145;BME280;10233;50.814;6.590;2023-05-09T04:03:34;100276.78;;;16.17;100.00
20145;BME280;10233;50.814;6.590;2023-05-09T04:04:37;100274.56;;;16.14;100.00
20145;BME280;10233;50.814;6.590;2023-05-09T04:05:41;100270.88;;;16.15;100.00
20145;BME280;10233;50.814;6.590;2023-05-09T04:06:47;100274.56;;;16.14;100.00
20145;BME280;10233;50.814;6.590;2023-05-09T04:07:50;100274.56;;;16.14;100.00
20145;BME280;10233;50.814;6.590;2023-05-09T04:08:51;100268.44;;;15.91;100.00
20145;BME280;10233;50.814;6.590;2023-05-09T04:09:52;100272.66;;;15.75;100.00
20145;BME280;10233;50.814;6.590;2023-05-09T04:10:53;100272.91;;;15.62;100.00
20145;BME280;10233;50.814;6.590;2023-05-09T04:11:54;100273.59;;;15.69;100.00
20145;BME280;10233;50.814;6.590;2023-05-09T04:12:54;100275.00;;;15.60;100.00
20145;BME280;10233;50.814;6.590;2023-05-09T04:13:56;100273.81;;;15.68;100.00
20145;BME280;10233;50.814;6.590;2023-05-09T04:15:05;100277.09;;;15.70;100.00
20145;BME280;10233;50.814;6.590;2023-05-09T04:16:06;100280.25;;;15.67;100.00
20145;BME280;10233;50.814;6.590;2023-05-09T04:17:07;100275.00;;;15.72;100.00
20145;BME280;10233;50.814;6.590;2023-05-09T04:18:08;100276.88;;;15.71;100.00
20145;BME280;10233;50.814;6.590;2023-05-09T04:19:09;100273.72;;;15.74;100.00
20145;BME280;10233;50.814;6.590;2023-05-09T04:20:10;100275.81;;;15.72;100.00
20145;BME280;10233;50.814;6.590;2023-05-09T04:21:11;100268.84;;;15.71;100.00
20145;BME280;10233;50.814;6.590;2023-05-09T04:22:13;100270.13;;;15.69;100.00
20145;BME280;10233;50.814;6.590;2023-05-09T04:23:14;100272.81;;;15.57;100.00
20145;BME280;10233;50.814;6.590;2023-05-09T04:24:15;100281.19;;;15.61;100.00
20145;BME280;10233;50.814;6.590;2023-05-09T04:25:18;100281.31;;;15.66;100.00
20145;BME280;10233;50.814;6.590;2023-05-09T04:26:20;100277.78;;;15.65;100.00
20145;BME280;10233;50.814;6.590;2023-05-09T04:27:23;100277.78;;;15.65;100.00
20145;BME280;10233;50.814;6.590;2023-05-09T04:28:25;100283.75;;;15.67;100.00
20145;BME280;10233;50.814;6.590;2023-05-09T04:29:26;100289.47;;;15.71;100.00
20145;BME280;10233;50.814;6.590;2023-05-09T04:30:29;100290.84;;;15.73;100.00
20145;BME280;10233;50.814;6.590;2023-05-09T04:31:30;100289.47;;;15.71;100.00
20145;BME280;10233;50.814;6.590;2023-05-09T04:32:32;100288.06;;;15.80;100.00
20145;BME280;10233;50.814;6.590;2023-05-09T04:33:32;100277.44;;;15.73;100.00
20145;BME280;10233;50.814;6.590;2023-05-09T04:34:36;100277.09;;;15.70;100.00
20145;BME280;10233;50.814;6.590;2023-05-09T04:35:42;100279.91;;;15.63;100.00
20145;BME280;10233;50.814;6.590;2023-05-09T04:36:43;100280.69;;;15.75;100.00
20145;BME280;10233;50.814;6.590;2023-05-09T04:37:44;100280.84;;;15.80;100.00
20145;BME280;10233;50.814;6.590;2023-05-09T04:38:45;100275.59;;;15.85;100.00
20145;BME280;10233;50.814;6.590;2023-05-09T04:39:49;100271.25;;;15.84;100.00
20145;BME280;10233;50.814;6.590;2023-05-09T04:40:58;100267.66;;;15.90;100.00
20145;BME280;10233;50.814;6.590;2023-05-09T04:41:59;100280.00;;;15.91;100.00
20145;BME280;10233;50.814;6.590;2023-05-09T04:43:00;100266.94;;;15.95;100.00
20145;BME280;10233;50.814;6.590;2023-05-09T04:44:04;100270.44;;;15.95;100.00
20145;BME280;10233;50.814;6.590;2023-05-09T04:45:05;100265.53;;;15.92;100.00
20145;BME280;10233;50.814;6.590;2023-05-09T04:46:05;100271.84;;;15.86;100.00
20145;BME280;10233;50.814;6.590;2023-05-09T04:47:07;100261.47;;;15.78;100.00
20145;BME280;10233;50.814;6.590;2023-05-09T04:48:08;100258.22;;;15.88;100.00
20145;BME280;10233;50.814;6.590;2023-05-09T04:49:09;100259.94;;;15.94;100.00
20145;BME280;10233;50.814;6.590;2023-05-09T04:50:10;100254.25;;;15.79;100.00
20145;BME280;10233;50.814;6.590;2023-05-09T04:51:11;100253.66;;;15.77;100.00
20145;BME280;10233;50.814;6.590;2023-05-09T04:52:12;100255.28;;;15.89;100.00
20145;BME280;10233;50.814;6.590;2023-05-09T04:53:13;100254.91;;;15.97;100.00
20145;BME280;10233;50.814;6.590;2023-05-09T04:54:15;100250.84;;;15.95;100.00
20145;BME280;10233;50.814;6.590;2023-05-09T04:55:15;100250.94;;;16.00;100.00
20145;BME280;10233;50.814;6.590;2023-05-09T04:56:19;100252.22;;;15.97;100.00
20145;BME280;10233;50.814;6.590;2023-05-09T04:57:22;100250.72;;;16.01;100.00
20145;BME280;10233;50.814;6.590;2023-05-09T04:58:28;100249.03;;;16.12;100.00
20145;BME280;10233;50.814;6.590;2023-05-09T04:59:30;100253.13;;;16.14;100.00
20145;BME280;10233;50.814;6.590;2023-05-09T05:00:30;100252.09;;;16.15;100.00
20145;BME280;10233;50.814;6.590;2023-05-09T05:01:32;100244.97;;;16.09;100.00
20145;BME280;10233;50.814;6.590;2023-05-09T05:02:33;100249.16;;;16.17;100.00
20145;BME280;10233;50.814;6.590;2023-05-09T05:03:34;100246.00;;;16.20;100.00
20145;BME280;10233;50.814;6.590;2023-05-09T05:04:35;100239.81;;;16.19;100.00
20145;BME280;10233;50.814;6.590;2023-05-09T05:05:36;100247.38;;;16.22;100.00
20145;BME280;10233;50.814;6.590;2023-05-09T05:06:37;100244.22;;;16.25;100.00
20145;BME280;10233;50.814;6.590;2023-05-09T05:07:38;100241.78;;;16.24;100.00
20145;BME280;10233;50.814;6.590;2023-05-09T05:08:39;100240.03;;;16.29;100.00
20145;BME280;10233;50.814;6.590;2023-05-09T05:09:39;100246.09;;;16.25;100.00
20145;BME280;10233;50.814;6.590;2023-05-09T05:10:40;100241.88;;;16.29;100.00
20145;BME280;10233;50.814;6.590;2023-05-09T05:11:44;100235.94;;;16.27;100.00
20145;BME280;10233;50.814;6.590;2023-05-09T05:12:45;100248.16;;;16.34;100.00
20145;BME280;10233;50.814;6.590;2023-05-09T05:13:47;100239.19;;;16.29;100.00
20145;BME280;10233;50.814;6.590;2023-05-09T05:14:48;100232.75;;;16.41;100.00
20145;BME280;10233;50.814;6.590;2023-05-09T05:15:52;100234.25;;;16.37;100.00
20145;BME280;10233;50.814;6.590;2023-05-09T05:16:55;100231.56;;;16.37;100.00
20145;BME280;10233;50.814;6.590;2023-05-09T05:17:57;100220.59;;;16.39;100.00
20145;BME280;10233;50.814;6.590;2023-05-09T05:19:02;100229.69;;;16.49;100.00
20145;BME280;10233;50.814;6.590;2023-05-09T05:20:06;100228.72;;;16.55;100.00
20145;BME280;10233;50.814;6.590;2023-05-09T05:21:09;100227.19;;;16.59;100.00
20145;BME280;10233;50.814;6.590;2023-05-09T05:22:10;100219.22;;;16.64;100.00
20145;BME280;10233;50.814;6.590;2023-05-09T05:23:13;100223.38;;;16.55;100.00
20145;BME280;10233;50.814;6.590;2023-05-09T05:24:14;100217.69;;;16.68;100.00
20145;BME280;10233;50.814;6.590;2023-05-09T05:25:15;100216.63;;;16.69;100.00
20145;BME280;10233;50.814;6.590;2023-05-09T05:26:19;100218.25;;;16.70;100.00
20145;BME280;10233;50.814;6.590;2023-05-09T05:27:20;100214.75;;;16.70;100.00
20145;BME280;10233;50.814;6.590;2023-05-09T05:28:21;100219.31;;;16.69;100.00
20145;BME280;10233;50.814;6.590;2023-05-09T05:29:22;100219.31;;;16.69;100.00
20145;BME280;10233;50.814;6.590;2023-05-09T05:30:23;100219.97;;;16.76;100.00
20145;BME280;10233;50.814;6.590;2023-05-09T05:31:24;100215.50;;;16.82;100.00
20145;BME280;10233;50.814;6.590;2023-05-09T05:32:25;100208.25;;;16.82;100.00